createdAt,value
2019-02-17T00:02:08.204Z,33.20
2019-02-17T00:04:37.783Z,33.30
2019-02-17T00:07:07.343Z,33.20
2019-02-17T00:09:36.903Z,33.20
2019-02-17T00:12:06.822Z,33.20
2019-02-17T00:14:36.370Z,33.20
2019-02-17T00:17:06.253Z,33.20
2019-02-17T00:19:36.158Z,33.30
2019-02-17T00:22:05.680Z,33.20
2019-02-17T00:24:35.240Z,33.30
2019-02-17T00:27:05.181Z,33.30
2019-02-17T00:29:34.728Z,33.20
2019-02-17T00:32:04.294Z,33.10
2019-02-17T00:34:33.866Z,33.20
2019-02-17T00:37:04.436Z,33.20
2019-02-17T00:39:33.977Z,33.20
2019-02-17T00:42:03.713Z,33.20
2019-02-17T00:44:33.216Z,33.20
2019-02-17T00:47:02.768Z,33.20
2019-02-17T00:49:32.649Z,33.20
2019-02-17T00:52:02.208Z,33.20
2019-02-17T00:54:31.782Z,33.80
2019-02-17T00:57:01.625Z,33.20
2019-02-17T00:59:31.232Z,33.10
2019-02-17T01:02:00.780Z,33.20
2019-02-17T01:04:30.413Z,33.20
2019-02-17T01:07:00.327Z,33.20
2019-02-17T01:09:29.883Z,33.20
2019-02-17T01:11:59.748Z,33.20
2019-02-17T01:14:29.677Z,33.20
2019-02-17T01:16:59.236Z,33.30
2019-02-17T01:19:28.818Z,33.20
2019-02-17T01:21:58.362Z,33.20
2019-02-17T01:24:27.915Z,33.20
2019-02-17T01:26:57.495Z,33.20
2019-02-17T01:29:27.410Z,33.20
2019-02-17T01:31:56.966Z,33.10
2019-02-17T01:34:26.565Z,33.20
2019-02-17T01:36:56.439Z,33.20
2019-02-17T01:39:25.996Z,33.20
2019-02-17T01:41:55.603Z,33.20
2019-02-17T01:44:25.152Z,33.20
2019-02-17T01:46:54.958Z,33.20
2019-02-17T01:49:24.560Z,33.20
2019-02-17T01:51:54.100Z,33.10
2019-02-17T01:54:24.034Z,33.20
2019-02-17T01:56:53.952Z,33.20
2019-02-17T01:59:30.441Z,33.30
2019-02-17T02:01:55.376Z,33.30
2019-02-17T02:04:30.987Z,33.20
2019-02-17T02:07:01.518Z,33.20
2019-02-17T02:09:31.078Z,33.20
2019-02-17T02:12:00.922Z,33.20
2019-02-17T02:14:30.893Z,33.10
2019-02-17T02:17:00.717Z,33.20
2019-02-17T02:19:30.329Z,33.80
2019-02-17T02:22:00.218Z,33.00
2019-02-17T02:24:29.835Z,33.00
2019-02-17T02:26:59.443Z,33.00
2019-02-17T02:29:28.994Z,33.00
2019-02-17T02:31:58.865Z,33.00
2019-02-17T02:34:28.707Z,33.10
2019-02-17T02:36:58.581Z,33.10
2019-02-17T02:39:28.495Z,33.10
2019-02-17T02:41:58.080Z,33.00
2019-02-17T02:44:27.650Z,33.00
2019-02-17T02:46:57.191Z,33.00
2019-02-17T02:49:27.717Z,33.10
2019-02-17T02:51:57.522Z,33.10
2019-02-17T02:54:27.079Z,33.10
2019-02-17T02:56:56.987Z,33.00
2019-02-17T02:59:26.531Z,33.00
2019-02-17T03:01:56.151Z,33.00
2019-02-17T03:04:25.731Z,32.90
2019-02-17T03:07:05.011Z,33.00
2019-02-17T03:09:35.416Z,33.00
2019-02-17T03:12:24.329Z,32.90
2019-02-17T03:14:54.807Z,33.50
2019-02-17T03:17:24.358Z,32.80
2019-02-17T03:19:53.943Z,32.90
2019-02-17T03:22:23.658Z,33.30
2019-02-17T03:24:53.208Z,32.90
2019-02-17T03:27:23.072Z,32.90
2019-02-17T03:30:04.044Z,32.80
2019-02-17T03:32:23.869Z,32.80
2019-02-17T03:34:54.712Z,32.80
2019-02-17T03:37:24.583Z,32.80
2019-02-17T03:39:54.144Z,32.80
2019-02-17T03:42:23.737Z,32.70
2019-02-17T03:44:53.304Z,32.70
2019-02-17T03:47:23.212Z,32.80
2019-02-17T03:49:52.811Z,32.60
2019-02-17T03:52:22.419Z,32.60
2019-02-17T03:54:51.981Z,32.70
2019-02-17T03:57:22.556Z,32.60
2019-02-17T03:59:52.087Z,33.40
2019-02-17T04:02:21.660Z,32.70
2019-02-17T04:04:51.231Z,32.60
2019-02-17T04:07:20.776Z,32.60
2019-02-17T04:09:50.329Z,32.60
2019-02-17T04:12:20.791Z,32.60
2019-02-17T04:14:50.628Z,32.60
2019-02-17T04:17:20.192Z,32.60
2019-02-17T04:19:50.969Z,32.60
2019-02-17T04:22:20.521Z,32.60
2019-02-17T04:24:51.345Z,32.60
2019-02-17T04:27:21.227Z,32.50
2019-02-17T04:29:50.795Z,32.60
2019-02-17T04:32:20.335Z,32.50
2019-02-17T04:35:09.429Z,32.60
2019-02-17T04:37:39.056Z,32.50
2019-02-17T04:40:08.555Z,32.80
2019-02-17T04:42:38.128Z,32.50
2019-02-17T04:45:08.076Z,32.60
2019-02-17T04:47:37.937Z,32.60
2019-02-17T04:50:09.089Z,33.00
2019-02-17T04:52:38.640Z,32.40
2019-02-17T04:55:08.595Z,32.40
2019-02-17T04:57:38.646Z,32.50
2019-02-17T05:00:09.695Z,32.40
2019-02-17T05:02:39.264Z,32.50
2019-02-17T05:05:09.236Z,32.40
2019-02-17T05:07:38.810Z,32.40
2019-02-17T05:10:08.599Z,32.40
2019-02-17T05:12:38.138Z,32.40
2019-02-17T05:15:08.696Z,32.40
2019-02-17T05:17:38.424Z,32.30
2019-02-17T05:20:08.884Z,32.30
2019-02-17T05:22:39.463Z,32.30
2019-02-17T05:25:09.363Z,32.30
2019-02-17T05:27:39.076Z,32.30
2019-02-17T05:30:11.994Z,32.20
2019-02-17T05:32:41.848Z,32.30
2019-02-17T05:35:12.581Z,32.20
2019-02-17T05:37:42.135Z,32.30
2019-02-17T05:40:11.696Z,32.30
2019-02-17T05:42:41.264Z,32.30
2019-02-17T05:45:11.112Z,32.30
2019-02-17T05:47:41.025Z,32.20
2019-02-17T05:50:10.605Z,32.20
2019-02-17T05:52:40.144Z,32.20
2019-02-17T05:55:09.945Z,32.20
2019-02-17T05:57:39.555Z,32.20
2019-02-17T06:00:11.244Z,32.20
2019-02-17T06:02:40.814Z,32.30
2019-02-17T06:05:10.366Z,32.30
2019-02-17T06:07:40.046Z,32.30
2019-02-17T06:10:10.113Z,32.20
2019-02-17T06:12:39.654Z,32.10
2019-02-17T06:15:09.223Z,32.10
2019-02-17T06:17:38.838Z,32.10
2019-02-17T06:20:10.687Z,31.90
2019-02-17T06:22:40.268Z,31.80
2019-02-17T06:25:09.819Z,31.70
2019-02-17T06:27:39.367Z,31.70
2019-02-17T06:30:09.868Z,31.50
2019-02-17T06:32:39.473Z,31.40
2019-02-17T06:35:09.591Z,31.50
2019-02-17T06:37:40.088Z,31.30
2019-02-17T06:40:10.516Z,31.30
2019-02-17T06:42:40.097Z,31.20
2019-02-17T06:45:10.245Z,31.10
2019-02-17T06:47:39.798Z,31.60
2019-02-17T06:50:10.510Z,30.90
2019-02-17T06:52:40.068Z,30.80
2019-02-17T06:55:27.443Z,30.70
2019-02-17T06:57:57.294Z,30.60
2019-02-17T07:00:31.371Z,30.60
2019-02-17T07:03:01.044Z,30.60
2019-02-17T07:05:32.196Z,30.80
2019-02-17T07:08:01.757Z,30.70
2019-02-17T07:10:31.296Z,30.70
2019-02-17T07:13:00.918Z,30.70
2019-02-17T07:15:30.455Z,30.90
2019-02-17T07:18:00.017Z,31.00
2019-02-17T07:20:29.599Z,30.90
2019-02-17T07:22:59.138Z,30.90
2019-02-17T07:25:30.313Z,31.00
2019-02-17T07:27:59.894Z,31.00
2019-02-17T07:30:29.430Z,30.90
2019-02-17T07:32:58.972Z,31.00
2019-02-17T07:35:28.804Z,30.90
2019-02-17T07:37:58.385Z,30.80
2019-02-17T07:40:27.943Z,30.80
2019-02-17T07:42:57.523Z,30.70
2019-02-17T07:45:27.070Z,30.70
2019-02-17T07:47:57.659Z,30.20
2019-02-17T07:50:27.264Z,30.10
2019-02-17T07:52:56.798Z,30.00
2019-02-17T07:55:26.352Z,29.90
2019-02-17T07:57:55.957Z,29.80
2019-02-17T08:00:25.495Z,29.80
2019-02-17T08:02:55.058Z,29.80
2019-02-17T08:05:24.636Z,29.60
2019-02-17T08:07:54.548Z,29.50
2019-02-17T08:10:24.462Z,29.50
2019-02-17T08:12:54.045Z,29.50
2019-02-17T08:15:23.598Z,29.50
2019-02-17T08:17:53.161Z,29.70
2019-02-17T08:20:22.760Z,29.70
2019-02-17T08:22:52.301Z,29.60
2019-02-17T08:25:22.329Z,29.60
2019-02-17T08:27:51.928Z,29.60
2019-02-17T08:30:21.493Z,29.70
2019-02-17T08:32:51.085Z,29.70
2019-02-17T08:35:20.652Z,29.60
2019-02-17T08:37:50.212Z,29.70
2019-02-17T08:40:20.611Z,29.60
2019-02-17T08:42:50.223Z,29.60
2019-02-17T08:45:19.777Z,29.60
2019-02-17T08:47:49.327Z,29.50
2019-02-17T08:50:20.003Z,29.30
2019-02-17T08:52:49.759Z,29.10
2019-02-17T08:55:19.315Z,28.70
2019-02-17T08:57:48.901Z,28.30
2019-02-17T09:00:18.517Z,27.80
2019-02-17T09:02:48.373Z,27.20
2019-02-17T09:05:17.998Z,27.10
2019-02-17T09:07:47.551Z,26.90
2019-02-17T09:10:17.124Z,26.70
2019-02-17T09:12:47.099Z,26.80
2019-02-17T09:15:17.014Z,26.80
2019-02-17T09:17:46.576Z,26.60
2019-02-17T09:20:16.440Z,26.60
2019-02-17T09:22:45.976Z,26.50
2019-02-17T09:25:15.539Z,26.30
2019-02-17T09:27:45.138Z,26.10
2019-02-17T09:30:16.800Z,25.70
2019-02-17T09:32:46.390Z,25.50
2019-02-17T09:35:15.938Z,25.50
2019-02-17T09:37:45.870Z,25.40
2019-02-17T09:40:15.437Z,25.00
2019-02-17T09:42:47.043Z,25.10
2019-02-17T09:45:18.006Z,25.10
2019-02-17T09:47:47.535Z,25.10
2019-02-17T09:50:17.095Z,25.20
2019-02-17T09:52:47.683Z,25.00
2019-02-17T09:55:17.224Z,24.90
2019-02-17T09:57:46.784Z,24.90
2019-02-17T10:00:16.674Z,24.90
2019-02-17T10:02:46.211Z,24.70
2019-02-17T10:05:15.783Z,24.40
2019-02-17T10:07:46.405Z,24.40
2019-02-17T10:10:17.872Z,24.20
2019-02-17T10:12:47.449Z,24.10
2019-02-17T10:15:16.996Z,24.00
2019-02-17T10:17:46.617Z,23.90
2019-02-17T10:20:16.776Z,23.70
2019-02-17T10:22:47.328Z,23.60
2019-02-17T10:25:16.908Z,23.70
2019-02-17T10:27:46.468Z,24.20
2019-02-17T10:30:17.924Z,23.60
2019-02-17T10:32:47.546Z,23.60
2019-02-17T10:35:17.104Z,23.60
2019-02-17T10:37:47.674Z,23.60
2019-02-17T10:40:18.731Z,23.80
2019-02-17T10:42:49.258Z,23.70
2019-02-17T10:45:18.798Z,23.70
2019-02-17T10:47:48.451Z,23.70
2019-02-17T10:50:18.036Z,24.20
2019-02-17T10:52:47.602Z,23.80
2019-02-17T10:55:17.158Z,23.70
2019-02-17T10:57:46.723Z,23.90
2019-02-17T11:00:20.991Z,24.00
2019-02-17T11:02:50.600Z,24.10
2019-02-17T11:05:20.155Z,24.20
2019-02-17T11:07:49.742Z,24.40
2019-02-17T11:10:19.325Z,24.70
2019-02-17T11:12:48.864Z,25.00
2019-02-17T11:15:19.975Z,25.20
2019-02-17T11:17:49.495Z,25.40
2019-02-17T11:20:19.887Z,25.60
2019-02-17T11:22:49.558Z,25.50
2019-02-17T11:25:19.153Z,25.50
2019-02-17T11:27:48.703Z,25.50
2019-02-17T11:30:20.879Z,25.50
2019-02-17T11:32:57.687Z,25.50
2019-02-17T11:35:21.883Z,25.70
2019-02-17T11:37:51.724Z,25.80
2019-02-17T11:40:21.273Z,25.90
2019-02-17T11:42:51.601Z,25.90
2019-02-17T11:45:21.187Z,26.00
2019-02-17T11:47:50.727Z,26.20
2019-02-17T11:50:20.285Z,26.30
2019-02-17T11:52:50.126Z,26.40
2019-02-17T11:55:19.670Z,26.60
2019-02-17T11:57:49.212Z,26.80
2019-02-17T12:00:22.764Z,26.80
2019-02-17T12:02:52.315Z,26.80
2019-02-17T12:05:22.379Z,27.00
2019-02-17T12:07:51.965Z,27.10
2019-02-17T12:10:21.522Z,27.10
2019-02-17T12:12:51.084Z,27.00
2019-02-17T12:15:20.668Z,27.10
2019-02-17T12:17:50.219Z,27.10
2019-02-17T12:20:38.596Z,27.20
2019-02-17T12:23:16.705Z,27.40
2019-02-17T12:25:53.624Z,27.60
2019-02-17T12:28:30.477Z,27.70
2019-02-17T12:31:00.059Z,27.80
2019-02-17T12:33:29.722Z,27.90
2019-02-17T12:35:59.280Z,27.90
2019-02-17T12:38:29.017Z,27.90
2019-02-17T12:40:58.597Z,28.00
2019-02-17T12:43:29.309Z,27.90
2019-02-17T12:45:58.936Z,27.90
2019-02-17T12:48:29.542Z,28.00
2019-02-17T12:51:00.194Z,28.00
2019-02-17T12:53:30.888Z,28.00
2019-02-17T12:56:00.441Z,28.00
2019-02-17T12:58:30.401Z,28.10
2019-02-17T13:01:00.081Z,28.20
2019-02-17T13:03:29.620Z,28.30
2019-02-17T13:05:59.507Z,28.30
2019-02-17T13:08:29.091Z,28.40
2019-02-17T13:10:58.635Z,28.40
2019-02-17T13:13:28.201Z,28.40
2019-02-17T13:15:58.627Z,28.40
2019-02-17T13:18:28.175Z,28.60
2019-02-17T13:20:57.721Z,28.60
2019-02-17T13:23:27.316Z,28.50
2019-02-17T13:25:56.857Z,28.60
2019-02-17T13:28:26.432Z,28.70
2019-02-17T13:30:56.015Z,28.70
2019-02-17T13:33:25.912Z,28.70
2019-02-17T13:35:55.467Z,28.60
2019-02-17T13:38:25.556Z,28.70
2019-02-17T13:40:55.448Z,28.80
2019-02-17T13:43:24.979Z,28.90
2019-02-17T13:45:55.462Z,29.00
2019-02-17T13:48:25.009Z,29.10
2019-02-17T13:50:54.896Z,29.10
2019-02-17T13:53:24.487Z,29.10
2019-02-17T13:55:54.024Z,29.20
2019-02-17T13:58:23.831Z,29.20
2019-02-17T14:00:53.447Z,29.20
2019-02-17T14:03:23.348Z,29.20
2019-02-17T14:05:52.936Z,29.20
2019-02-17T14:08:22.528Z,29.20
2019-02-17T14:11:11.558Z,29.30
2019-02-17T14:13:41.444Z,29.40
2019-02-17T14:16:11.334Z,29.70
2019-02-17T14:18:40.926Z,29.40
2019-02-17T14:21:11.044Z,29.50
2019-02-17T14:23:40.603Z,29.50
2019-02-17T14:26:10.148Z,29.50
2019-02-17T14:28:41.475Z,29.60
2019-02-17T14:31:11.023Z,29.80
2019-02-17T14:33:40.574Z,29.60
2019-02-17T14:36:10.162Z,29.70
2019-02-17T14:38:39.705Z,29.70
2019-02-17T14:41:09.260Z,29.70
2019-02-17T14:43:38.873Z,29.80
2019-02-17T14:46:08.784Z,29.70
2019-02-17T14:48:38.327Z,29.70
2019-02-17T14:51:07.903Z,29.60
2019-02-17T14:53:38.501Z,29.90
2019-02-17T14:56:08.067Z,29.70
2019-02-17T14:58:37.647Z,29.60
2019-02-17T15:01:08.529Z,29.60
2019-02-17T15:03:38.087Z,29.80
2019-02-17T15:06:07.696Z,29.90
2019-02-17T15:08:37.242Z,30.00
2019-02-17T15:11:06.805Z,30.00
2019-02-17T15:13:36.385Z,30.00
2019-02-17T15:16:05.939Z,30.00
2019-02-17T15:18:47.534Z,30.00
2019-02-17T15:21:17.097Z,30.00
2019-02-17T15:23:46.657Z,29.90
2019-02-17T15:26:17.286Z,29.90
2019-02-17T15:28:50.857Z,30.00
2019-02-17T15:31:18.071Z,30.10
2019-02-17T15:33:48.078Z,30.00
2019-02-17T15:36:17.574Z,30.00
2019-02-17T15:38:47.135Z,30.00
2019-02-17T15:41:16.732Z,29.90
2019-02-17T15:43:47.367Z,29.90
2019-02-17T15:46:16.942Z,29.70
2019-02-17T15:48:46.539Z,29.70
2019-02-17T15:51:16.119Z,29.70
2019-02-17T15:53:45.668Z,29.70
2019-02-17T15:56:15.268Z,29.70
2019-02-17T15:58:45.143Z,29.70
2019-02-17T16:01:14.759Z,29.70
2019-02-17T16:03:44.994Z,29.70
2019-02-17T16:06:15.786Z,29.70
2019-02-17T16:08:45.435Z,29.70
2019-02-17T16:11:15.256Z,29.80
2019-02-17T16:13:44.810Z,29.80
2019-02-17T16:16:14.344Z,29.80
2019-02-17T16:18:44.215Z,29.80
2019-02-17T16:21:13.768Z,29.80
2019-02-17T16:23:43.351Z,30.00
2019-02-17T16:26:13.940Z,31.00
2019-02-17T16:28:43.549Z,31.30
2019-02-17T16:31:13.099Z,32.50
2019-02-17T16:33:42.708Z,32.10
2019-02-17T16:36:12.475Z,32.50
2019-02-17T16:38:43.025Z,32.30
2019-02-17T16:41:12.598Z,32.20
2019-02-17T16:43:42.144Z,32.10
2019-02-17T16:46:11.899Z,32.10
2019-02-17T16:48:41.863Z,32.10
2019-02-17T16:51:11.406Z,32.20
2019-02-17T16:53:40.971Z,32.00
2019-02-17T16:56:10.892Z,32.00
2019-02-17T16:58:40.436Z,31.70
2019-02-17T17:01:10.005Z,31.80
2019-02-17T17:03:39.575Z,31.60
2019-02-17T17:06:09.120Z,31.60
2019-02-17T17:08:38.814Z,31.60
2019-02-17T17:11:08.450Z,32.30
2019-02-17T17:13:50.787Z,31.50
2019-02-17T17:16:20.379Z,31.50
2019-02-17T17:18:49.913Z,31.50
2019-02-17T17:21:19.471Z,31.50
2019-02-17T17:23:49.080Z,31.40
2019-02-17T17:26:18.615Z,31.40
2019-02-17T17:28:48.300Z,31.40
2019-02-17T17:31:17.867Z,31.40
2019-02-17T17:33:47.419Z,31.30
2019-02-17T17:36:16.976Z,31.30
2019-02-17T17:38:47.991Z,32.20
2019-02-17T17:41:17.546Z,31.40
2019-02-17T17:43:47.112Z,31.30
2019-02-17T17:46:17.063Z,31.30
2019-02-17T17:48:46.784Z,31.20
2019-02-17T17:51:16.719Z,31.30
2019-02-17T17:53:46.502Z,31.20
2019-02-17T17:56:16.404Z,31.40
2019-02-17T17:58:46.323Z,31.40
2019-02-17T18:01:16.249Z,31.40
2019-02-17T18:03:45.805Z,31.40
2019-02-17T18:06:15.371Z,31.40
2019-02-17T18:08:45.315Z,31.40
2019-02-17T18:11:14.950Z,32.10
2019-02-17T18:13:44.522Z,31.50
2019-02-17T18:16:14.095Z,31.40
2019-02-17T18:18:43.759Z,31.40
2019-02-17T18:21:13.706Z,31.40
2019-02-17T18:23:43.320Z,31.50
2019-02-17T18:26:12.874Z,31.40
2019-02-17T18:28:42.434Z,31.60
2019-02-17T18:31:12.348Z,31.50
2019-02-17T18:33:42.256Z,31.50
2019-02-17T18:36:11.802Z,31.50
2019-02-17T18:38:41.396Z,31.60
2019-02-17T18:41:11.277Z,31.60
2019-02-17T18:43:42.649Z,31.50
2019-02-17T18:46:12.244Z,31.50
2019-02-17T18:48:42.068Z,31.50
2019-02-17T18:51:11.803Z,31.50
2019-02-17T18:53:41.672Z,32.30
2019-02-17T18:56:11.217Z,31.50
2019-02-17T18:58:41.776Z,31.50
2019-02-17T19:01:11.353Z,31.50
2019-02-17T19:03:40.900Z,31.50
2019-02-17T19:06:10.461Z,31.60
2019-02-17T19:08:40.053Z,31.50
2019-02-17T19:11:09.600Z,31.50
2019-02-17T19:13:39.447Z,31.60
2019-02-17T19:16:09.022Z,31.70
2019-02-17T19:18:38.575Z,31.60
2019-02-17T19:21:08.135Z,31.60
2019-02-17T19:23:38.093Z,31.60
2019-02-17T19:26:07.627Z,31.60
2019-02-17T19:28:37.511Z,31.50
2019-02-17T19:31:07.457Z,31.60
2019-02-17T19:33:37.014Z,31.50
2019-02-17T19:36:06.936Z,31.60
2019-02-17T19:38:36.848Z,31.60
2019-02-17T19:41:06.395Z,31.50
2019-02-17T19:43:35.962Z,31.60
2019-02-17T19:46:05.547Z,32.20
2019-02-17T19:48:35.102Z,31.60
2019-02-17T19:51:05.004Z,31.60
2019-02-17T19:53:35.429Z,31.60
2019-02-17T19:56:07.325Z,31.60
2019-02-17T19:58:36.484Z,31.50
2019-02-17T20:01:06.968Z,32.40
2019-02-17T20:03:38.121Z,31.60
2019-02-17T20:06:08.670Z,31.60
2019-02-17T20:08:38.234Z,31.60
2019-02-17T20:11:07.825Z,31.50
2019-02-17T20:13:37.376Z,31.70
2019-02-17T20:16:06.936Z,32.10
2019-02-17T20:18:36.614Z,31.50
2019-02-17T20:21:06.161Z,32.30
2019-02-17T20:23:35.715Z,31.60
2019-02-17T20:26:05.296Z,31.60
2019-02-17T20:28:57.270Z,31.50
2019-02-17T20:31:25.740Z,31.50
2019-02-17T20:33:55.282Z,31.50
2019-02-17T20:36:24.834Z,31.60
2019-02-17T20:38:54.428Z,31.70
2019-02-17T20:41:24.001Z,31.50
2019-02-17T20:43:53.563Z,31.60
2019-02-17T20:46:23.494Z,31.70
2019-02-17T20:48:53.043Z,31.60
2019-02-17T20:51:23.487Z,31.60
2019-02-17T20:53:53.782Z,31.70
2019-02-17T20:56:23.318Z,31.60
2019-02-17T20:58:52.889Z,31.60
2019-02-17T21:01:22.468Z,31.60
2019-02-17T21:03:52.029Z,31.70
2019-02-17T21:06:21.903Z,31.60
2019-02-17T21:08:51.488Z,31.60
2019-02-17T21:11:21.043Z,31.60
2019-02-17T21:13:50.603Z,31.60
2019-02-17T21:16:20.215Z,31.60
2019-02-17T21:18:49.767Z,31.60
2019-02-17T21:21:19.381Z,31.60
2019-02-17T21:23:48.962Z,31.60
2019-02-17T21:26:18.844Z,31.60
2019-02-17T21:28:48.455Z,32.10
2019-02-17T21:31:18.026Z,31.50
2019-02-17T21:33:47.756Z,31.50
2019-02-17T21:36:23.158Z,31.50
2019-02-17T21:38:48.891Z,31.60
2019-02-17T21:41:18.444Z,31.60
2019-02-17T21:43:48.003Z,31.60
2019-02-17T21:46:18.429Z,31.50
2019-02-17T21:48:48.310Z,31.60
2019-02-17T21:51:17.869Z,31.50
2019-02-17T21:53:47.492Z,31.60
2019-02-17T21:56:17.039Z,32.20
2019-02-17T21:58:46.608Z,31.60
2019-02-17T22:01:16.371Z,31.70
2019-02-17T22:03:45.920Z,31.60
2019-02-17T22:06:15.482Z,31.60
2019-02-17T22:08:45.057Z,31.60
2019-02-17T22:11:14.630Z,31.60
2019-02-17T22:13:44.572Z,31.70
2019-02-17T22:16:14.161Z,31.60
2019-02-17T22:18:43.706Z,31.70
2019-02-17T22:21:13.570Z,31.60
2019-02-17T22:23:43.357Z,31.70
2019-02-17T22:26:12.966Z,31.60
2019-02-17T22:28:42.919Z,32.40
2019-02-17T22:31:12.498Z,31.60
2019-02-17T22:33:54.196Z,31.70
2019-02-17T22:36:23.785Z,31.60
2019-02-17T22:38:53.319Z,31.70
2019-02-17T22:41:22.885Z,31.70
2019-02-17T22:43:53.322Z,31.70
2019-02-17T22:46:22.892Z,31.70
2019-02-17T22:48:52.439Z,31.70
2019-02-17T22:51:22.019Z,31.70
2019-02-17T22:53:51.571Z,31.70
2019-02-17T22:56:22.080Z,32.40
2019-02-17T22:58:51.706Z,31.70
2019-02-17T23:01:23.439Z,31.70
2019-02-17T23:03:53.055Z,31.70
2019-02-17T23:06:24.015Z,31.70
2019-02-17T23:08:53.573Z,31.80
2019-02-17T23:11:23.161Z,31.80
2019-02-17T23:13:52.705Z,31.80
2019-02-17T23:16:22.259Z,31.80
2019-02-17T23:18:51.849Z,31.80
2019-02-17T23:21:21.756Z,32.50
2019-02-17T23:23:51.307Z,31.80
2019-02-17T23:26:20.911Z,31.80
2019-02-17T23:28:50.776Z,31.90
2019-02-17T23:31:20.705Z,31.90
2019-02-17T23:33:50.610Z,31.80
2019-02-17T23:36:20.155Z,31.80
2019-02-17T23:38:50.056Z,31.90
2019-02-17T23:41:19.640Z,31.90
2019-02-17T23:43:49.185Z,31.40
2019-02-17T23:46:18.760Z,31.90
2019-02-17T23:48:48.663Z,32.00
2019-02-17T23:51:18.219Z,31.90
2019-02-17T23:53:47.780Z,31.90
2019-02-17T23:56:17.626Z,32.00
2019-02-17T23:58:47.174Z,31.80
